sensor_id;sensor_type;location;lat;lon;timestamp;temperature;humidity
25708;DHT22;13567;61.652;17.100;2022-07-06T00:00:06;11.20;99.90
25708;DHT22;13567;61.652;17.100;2022-07-06T00:02:33;11.20;99.90
25708;DHT22;13567;61.652;17.100;2022-07-06T00:05:00;11.30;99.90
25708;DHT22;13567;61.652;17.100;2022-07-06T00:07:27;11.30;99.90
25708;DHT22;13567;61.652;17.100;2022-07-06T00:09:54;11.30;99.90
25708;DHT22;13567;61.652;17.100;2022-07-06T00:12:21;11.40;99.90
25708;DHT22;13567;61.652;17.100;2022-07-06T00:14:48;11.50;99.90
25708;DHT22;13567;61.652;17.100;2022-07-06T00:17:15;11.50;99.90
25708;DHT22;13567;61.652;17.100;2022-07-06T00:19:43;11.70;99.90
25708;DHT22;13567;61.652;17.100;2022-07-06T00:22:10;11.70;99.90
25708;DHT22;13567;61.652;17.100;2022-07-06T00:24:37;11.80;99.90
25708;DHT22;13567;61.652;17.100;2022-07-06T00:27:04;11.80;99.90
25708;DHT22;13567;61.652;17.100;2022-07-06T00:29:31;11.90;99.90
25708;DHT22;13567;61.652;17.100;2022-07-06T00:31:58;12.00;99.90
25708;DHT22;13567;61.652;17.100;2022-07-06T00:34:25;12.00;99.90
25708;DHT22;13567;61.652;17.100;2022-07-06T00:36:52;12.10;99.90
25708;DHT22;13567;61.652;17.100;2022-07-06T00:39:19;12.20;99.90
25708;DHT22;13567;61.652;17.100;2022-07-06T00:41:48;12.20;99.90
25708;DHT22;13567;61.652;17.100;2022-07-06T00:44:14;12.20;99.90
25708;DHT22;13567;61.652;17.100;2022-07-06T00:46:41;12.30;99.90
25708;DHT22;13567;61.652;17.100;2022-07-06T00:49:09;12.30;99.90
25708;DHT22;13567;61.652;17.100;2022-07-06T00:51:56;12.40;99.90
25708;DHT22;13567;61.652;17.100;2022-07-06T00:54:25;12.30;99.90
25708;DHT22;13567;61.652;17.100;2022-07-06T00:56:53;12.30;99.90
25708;DHT22;13567;61.652;17.100;2022-07-06T00:59:20;12.40;99.90
25708;DHT22;13567;61.652;17.100;2022-07-06T01:01:47;12.40;99.90
25708;DHT22;13567;61.652;17.100;2022-07-06T01:04:14;12.40;99.90
25708;DHT22;13567;61.652;17.100;2022-07-06T01:06:41;12.40;99.90
25708;DHT22;13567;61.652;17.100;2022-07-06T01:09:08;12.40;99.90
25708;DHT22;13567;61.652;17.100;2022-07-06T01:11:35;12.40;99.90
25708;DHT22;13567;61.652;17.100;2022-07-06T01:14:02;12.40;99.90
25708;DHT22;13567;61.652;17.100;2022-07-06T01:16:30;12.30;99.90
25708;DHT22;13567;61.652;17.100;2022-07-06T01:18:57;12.30;99.90
25708;DHT22;13567;61.652;17.100;2022-07-06T01:21:24;12.30;99.90
25708;DHT22;13567;61.652;17.100;2022-07-06T01:23:51;12.30;99.90
25708;DHT22;13567;61.652;17.100;2022-07-06T01:26:20;12.30;99.90
25708;DHT22;13567;61.652;17.100;2022-07-06T01:28:51;12.30;99.90
25708;DHT22;13567;61.652;17.100;2022-07-06T01:31:20;12.30;99.90
25708;DHT22;13567;61.652;17.100;2022-07-06T01:33:52;12.30;99.90
25708;DHT22;13567;61.652;17.100;2022-07-06T01:36:20;12.30;99.90
25708;DHT22;13567;61.652;17.100;2022-07-06T01:38:51;12.30;99.90
25708;DHT22;13567;61.652;17.100;2022-07-06T01:41:19;12.30;99.90
25708;DHT22;13567;61.652;17.100;2022-07-06T01:43:47;12.30;99.90
25708;DHT22;13567;61.652;17.100;2022-07-06T01:46:14;12.40;99.90
25708;DHT22;13567;61.652;17.100;2022-07-06T01:48:41;12.40;99.90
25708;DHT22;13567;61.652;17.100;2022-07-06T01:51:08;12.40;99.90
25708;DHT22;13567;61.652;17.100;2022-07-06T01:53:35;12.40;99.90
25708;DHT22;13567;61.652;17.100;2022-07-06T01:56:02;12.40;99.90
25708;DHT22;13567;61.652;17.100;2022-07-06T01:58:29;12.40;99.90
25708;DHT22;13567;61.652;17.100;2022-07-06T02:00:56;12.40;99.90
25708;DHT22;13567;61.652;17.100;2022-07-06T02:03:23;12.40;99.90
25708;DHT22;13567;61.652;17.100;2022-07-06T02:05:50;12.40;99.90
25708;DHT22;13567;61.652;17.100;2022-07-06T02:08:18;12.50;99.90
25708;DHT22;13567;61.652;17.100;2022-07-06T02:10:45;12.50;99.90
25708;DHT22;13567;61.652;17.100;2022-07-06T02:13:12;12.60;99.90
25708;DHT22;13567;61.652;17.100;2022-07-06T02:15:39;12.50;99.90
25708;DHT22;13567;61.652;17.100;2022-07-06T02:18:06;12.50;99.90
25708;DHT22;13567;61.652;17.100;2022-07-06T02:20:34;12.50;99.90
25708;DHT22;13567;61.652;17.100;2022-07-06T02:23:01;12.60;99.90
25708;DHT22;13567;61.652;17.100;2022-07-06T02:25:27;12.60;99.90
25708;DHT22;13567;61.652;17.100;2022-07-06T02:27:54;12.60;99.90
25708;DHT22;13567;61.652;17.100;2022-07-06T02:30:21;12.60;99.90
25708;DHT22;13567;61.652;17.100;2022-07-06T02:32:48;12.60;99.90
25708;DHT22;13567;61.652;17.100;2022-07-06T02:35:15;12.50;99.90
25708;DHT22;13567;61.652;17.100;2022-07-06T02:37:42;12.60;99.90
25708;DHT22;13567;61.652;17.100;2022-07-06T02:40:09;12.60;99.90
25708;DHT22;13567;61.652;17.100;2022-07-06T02:42:36;12.60;99.90
25708;DHT22;13567;61.652;17.100;2022-07-06T02:45:04;12.60;99.90
25708;DHT22;13567;61.652;17.100;2022-07-06T02:47:31;12.70;99.90
25708;DHT22;13567;61.652;17.100;2022-07-06T02:49:58;12.70;99.90
25708;DHT22;13567;61.652;17.100;2022-07-06T02:52:25;12.70;99.90
25708;DHT22;13567;61.652;17.100;2022-07-06T02:54:52;12.80;99.90
25708;DHT22;13567;61.652;17.100;2022-07-06T02:57:20;12.80;99.90
25708;DHT22;13567;61.652;17.100;2022-07-06T02:59:47;12.80;99.90
25708;DHT22;13567;61.652;17.100;2022-07-06T03:02:17;12.80;99.90
25708;DHT22;13567;61.652;17.100;2022-07-06T03:04:44;12.90;99.90
25708;DHT22;13567;61.652;17.100;2022-07-06T03:07:11;12.90;99.90
25708;DHT22;13567;61.652;17.100;2022-07-06T03:09:38;12.90;99.90
25708;DHT22;13567;61.652;17.100;2022-07-06T03:12:05;12.90;99.90
25708;DHT22;13567;61.652;17.100;2022-07-06T03:14:32;13.00;99.90
25708;DHT22;13567;61.652;17.100;2022-07-06T03:16:58;12.90;99.90
25708;DHT22;13567;61.652;17.100;2022-07-06T03:19:25;13.00;99.90
25708;DHT22;13567;61.652;17.100;2022-07-06T03:21:52;13.10;99.90
25708;DHT22;13567;61.652;17.100;2022-07-06T03:24:19;13.10;99.90
25708;DHT22;13567;61.652;17.100;2022-07-06T03:26:46;13.20;99.90
25708;DHT22;13567;61.652;17.100;2022-07-06T03:29:13;13.20;99.90
25708;DHT22;13567;61.652;17.100;2022-07-06T03:31:40;13.30;99.90
25708;DHT22;13567;61.652;17.100;2022-07-06T03:34:07;13.30;99.90
25708;DHT22;13567;61.652;17.100;2022-07-06T03:36:34;13.30;99.90
25708;DHT22;13567;61.652;17.100;2022-07-06T03:39:05;13.40;99.90
25708;DHT22;13567;61.652;17.100;2022-07-06T03:41:32;13.40;99.90
25708;DHT22;13567;61.652;17.100;2022-07-06T03:43:59;13.40;99.90
25708;DHT22;13567;61.652;17.100;2022-07-06T03:46:28;13.40;99.90
25708;DHT22;13567;61.652;17.100;2022-07-06T03:48:55;13.40;99.90
25708;DHT22;13567;61.652;17.100;2022-07-06T03:51:22;13.50;99.90
25708;DHT22;13567;61.652;17.100;2022-07-06T03:53:49;13.60;99.90
25708;DHT22;13567;61.652;17.100;2022-07-06T03:56:16;13.60;99.90
25708;DHT22;13567;61.652;17.100;2022-07-06T03:59:00;13.70;99.90
25708;DHT22;13567;61.652;17.100;2022-07-06T04:01:27;13.80;99.90
25708;DHT22;13567;61.652;17.100;2022-07-06T04:03:54;13.80;99.90
25708;DHT22;13567;61.652;17.100;2022-07-06T04:06:21;13.80;99.90
25708;DHT22;13567;61.652;17.100;2022-07-06T04:08:48;13.90;99.90
25708;DHT22;13567;61.652;17.100;2022-07-06T04:11:15;13.90;99.90
25708;DHT22;13567;61.652;17.100;2022-07-06T04:13:42;14.00;99.90
25708;DHT22;13567;61.652;17.100;2022-07-06T04:16:09;13.90;99.90
25708;DHT22;13567;61.652;17.100;2022-07-06T04:18:36;14.00;99.90
25708;DHT22;13567;61.652;17.100;2022-07-06T04:21:03;14.10;99.90
25708;DHT22;13567;61.652;17.100;2022-07-06T04:23:30;14.20;99.90
25708;DHT22;13567;61.652;17.100;2022-07-06T04:25:57;14.20;99.90
25708;DHT22;13567;61.652;17.100;2022-07-06T04:28:24;14.30;99.90
25708;DHT22;13567;61.652;17.100;2022-07-06T04:30:52;14.20;99.90
25708;DHT22;13567;61.652;17.100;2022-07-06T04:33:18;14.30;99.90
25708;DHT22;13567;61.652;17.100;2022-07-06T04:35:45;14.30;99.90
25708;DHT22;13567;61.652;17.100;2022-07-06T04:38:12;14.30;99.90
25708;DHT22;13567;61.652;17.100;2022-07-06T04:40:39;14.30;99.90
25708;DHT22;13567;61.652;17.100;2022-07-06T04:43:06;14.40;99.90
25708;DHT22;13567;61.652;17.100;2022-07-06T04:45:33;14.40;99.90
25708;DHT22;13567;61.652;17.100;2022-07-06T04:48:00;14.40;99.90
25708;DHT22;13567;61.652;17.100;2022-07-06T04:50:27;14.50;99.90
25708;DHT22;13567;61.652;17.100;2022-07-06T04:52:53;14.40;99.90
25708;DHT22;13567;61.652;17.100;2022-07-06T04:55:21;14.40;99.90
25708;DHT22;13567;61.652;17.100;2022-07-06T04:57:47;14.30;99.90
25708;DHT22;13567;61.652;17.100;2022-07-06T05:00:15;14.40;99.90
25708;DHT22;13567;61.652;17.100;2022-07-06T05:02:42;14.40;99.90
25708;DHT22;13567;61.652;17.100;2022-07-06T05:05:09;14.40;99.90
25708;DHT22;13567;61.652;17.100;2022-07-06T05:07:36;14.40;99.90
25708;DHT22;13567;61.652;17.100;2022-07-06T05:10:11;14.50;99.90
25708;DHT22;13567;61.652;17.100;2022-07-06T05:12:37;14.50;99.90
25708;DHT22;13567;61.652;17.100;2022-07-06T05:15:05;14.50;99.90
25708;DHT22;13567;61.652;17.100;2022-07-06T05:17:33;14.50;99.90
25708;DHT22;13567;61.652;17.100;2022-07-06T05:20:00;14.60;99.90
25708;DHT22;13567;61.652;17.100;2022-07-06T05:22:27;14.50;99.90
25708;DHT22;13567;61.652;17.100;2022-07-06T05:24:54;14.60;99.90
25708;DHT22;13567;61.652;17.100;2022-07-06T05:27:21;14.50;99.90
25708;DHT22;13567;61.652;17.100;2022-07-06T05:29:48;14.50;99.90
25708;DHT22;13567;61.652;17.100;2022-07-06T05:32:15;14.60;99.90
25708;DHT22;13567;61.652;17.100;2022-07-06T05:34:42;14.60;99.90
25708;DHT22;13567;61.652;17.100;2022-07-06T05:37:09;14.70;99.90
25708;DHT22;13567;61.652;17.100;2022-07-06T05:39:36;14.70;99.90
25708;DHT22;13567;61.652;17.100;2022-07-06T05:42:08;14.70;99.90
25708;DHT22;13567;61.652;17.100;2022-07-06T05:44:35;14.90;99.90
25708;DHT22;13567;61.652;17.100;2022-07-06T05:47:02;15.00;99.90
25708;DHT22;13567;61.652;17.100;2022-07-06T05:49:47;15.00;99.90
25708;DHT22;13567;61.652;17.100;2022-07-06T05:52:33;15.10;99.90
25708;DHT22;13567;61.652;17.100;2022-07-06T05:55:00;15.00;99.90
25708;DHT22;13567;61.652;17.100;2022-07-06T05:57:27;14.90;99.90
25708;DHT22;13567;61.652;17.100;2022-07-06T05:59:54;14.90;99.90
25708;DHT22;13567;61.652;17.100;2022-07-06T06:02:21;15.00;99.90
25708;DHT22;13567;61.652;17.100;2022-07-06T06:04:48;15.00;99.90
25708;DHT22;13567;61.652;17.100;2022-07-06T06:07:14;15.00;99.90
25708;DHT22;13567;61.652;17.100;2022-07-06T06:09:41;15.20;99.90
25708;DHT22;13567;61.652;17.100;2022-07-06T06:12:08;15.20;99.90
25708;DHT22;13567;61.652;17.100;2022-07-06T06:14:35;15.20;99.90
25708;DHT22;13567;61.652;17.100;2022-07-06T06:17:02;15.20;99.90
25708;DHT22;13567;61.652;17.100;2022-07-06T06:19:35;15.20;99.90
25708;DHT22;13567;61.652;17.100;2022-07-06T06:22:03;15.10;99.90
25708;DHT22;13567;61.652;17.100;2022-07-06T06:24:30;15.30;99.90
25708;DHT22;13567;61.652;17.100;2022-07-06T06:26:57;15.40;99.90
25708;DHT22;13567;61.652;17.100;2022-07-06T06:29:25;15.50;99.90
25708;DHT22;13567;61.652;17.100;2022-07-06T06:31:52;15.70;99.90
25708;DHT22;13567;61.652;17.100;2022-07-06T06:34:19;15.90;99.90
25708;DHT22;13567;61.652;17.100;2022-07-06T06:36:46;16.00;99.90
25708;DHT22;13567;61.652;17.100;2022-07-06T06:39:13;16.10;99.90
25708;DHT22;13567;61.652;17.100;2022-07-06T06:41:40;16.00;99.90
25708;DHT22;13567;61.652;17.100;2022-07-06T06:44:07;16.00;99.90
25708;DHT22;13567;61.652;17.100;2022-07-06T06:46:36;15.90;99.90
25708;DHT22;13567;61.652;17.100;2022-07-06T06:49:03;16.00;99.90
25708;DHT22;13567;61.652;17.100;2022-07-06T06:51:30;15.80;99.90
25708;DHT22;13567;61.652;17.100;2022-07-06T06:53:57;15.90;99.90
25708;DHT22;13567;61.652;17.100;2022-07-06T06:56:24;16.00;99.90
25708;DHT22;13567;61.652;17.100;2022-07-06T06:58:51;16.00;99.90
25708;DHT22;13567;61.652;17.100;2022-07-06T07:01:38;16.00;99.90
25708;DHT22;13567;61.652;17.100;2022-07-06T07:04:05;16.10;99.90
25708;DHT22;13567;61.652;17.100;2022-07-06T07:06:33;16.40;99.90
25708;DHT22;13567;61.652;17.100;2022-07-06T07:09:00;16.70;99.90
25708;DHT22;13567;61.652;17.100;2022-07-06T07:11:26;17.20;99.90
25708;DHT22;13567;61.652;17.100;2022-07-06T07:13:53;17.40;99.90
25708;DHT22;13567;61.652;17.100;2022-07-06T07:16:20;17.60;99.90
25708;DHT22;13567;61.652;17.100;2022-07-06T07:18:47;17.90;99.90
25708;DHT22;13567;61.652;17.100;2022-07-06T07:21:14;18.00;99.90
25708;DHT22;13567;61.652;17.100;2022-07-06T07:23:41;17.70;99.90
25708;DHT22;13567;61.652;17.100;2022-07-06T07:26:08;17.60;99.90
25708;DHT22;13567;61.652;17.100;2022-07-06T07:28:35;17.70;99.90
25708;DHT22;13567;61.652;17.100;2022-07-06T07:31:03;17.70;99.90
25708;DHT22;13567;61.652;17.100;2022-07-06T07:33:30;17.70;99.90
25708;DHT22;13567;61.652;17.100;2022-07-06T07:35:57;18.10;99.90
25708;DHT22;13567;61.652;17.100;2022-07-06T07:38:24;18.10;99.90
25708;DHT22;13567;61.652;17.100;2022-07-06T07:40:55;17.80;99.90
25708;DHT22;13567;61.652;17.100;2022-07-06T07:43:22;17.80;99.90
25708;DHT22;13567;61.652;17.100;2022-07-06T07:45:49;18.00;99.90
25708;DHT22;13567;61.652;17.100;2022-07-06T07:48:16;17.80;99.90
25708;DHT22;13567;61.652;17.100;2022-07-06T07:50:43;17.70;99.90
25708;DHT22;13567;61.652;17.100;2022-07-06T07:53:10;17.80;99.90
25708;DHT22;13567;61.652;17.100;2022-07-06T07:55:37;18.10;99.90
25708;DHT22;13567;61.652;17.100;2022-07-06T07:58:08;18.30;99.90
25708;DHT22;13567;61.652;17.100;2022-07-06T08:00:35;18.20;99.90
25708;DHT22;13567;61.652;17.100;2022-07-06T08:03:02;18.30;99.90
25708;DHT22;13567;61.652;17.100;2022-07-06T08:05:29;18.50;99.90
25708;DHT22;13567;61.652;17.100;2022-07-06T08:07:56;18.60;99.90
25708;DHT22;13567;61.652;17.100;2022-07-06T08:10:23;18.60;99.90
25708;DHT22;13567;61.652;17.100;2022-07-06T08:12:50;18.70;99.90
25708;DHT22;13567;61.652;17.100;2022-07-06T08:15:17;18.70;99.90
25708;DHT22;13567;61.652;17.100;2022-07-06T08:17:44;19.00;99.90
25708;DHT22;13567;61.652;17.100;2022-07-06T08:20:12;19.20;99.90
25708;DHT22;13567;61.652;17.100;2022-07-06T08:22:39;19.20;99.90
25708;DHT22;13567;61.652;17.100;2022-07-06T08:25:06;19.30;99.90
25708;DHT22;13567;61.652;17.100;2022-07-06T08:27:34;19.70;99.90
25708;DHT22;13567;61.652;17.100;2022-07-06T08:30:17;20.40;99.90
25708;DHT22;13567;61.652;17.100;2022-07-06T08:32:44;20.90;99.90
25708;DHT22;13567;61.652;17.100;2022-07-06T08:35:51;20.70;98.00
25708;DHT22;13567;61.652;17.100;2022-07-06T08:38:38;21.10;98.80
25708;DHT22;13567;61.652;17.100;2022-07-06T08:41:05;21.50;96.30
25708;DHT22;13567;61.652;17.100;2022-07-06T08:43:53;21.70;94.00
25708;DHT22;13567;61.652;17.100;2022-07-06T08:46:30;21.80;93.30
25708;DHT22;13567;61.652;17.100;2022-07-06T08:49:18;22.30;91.40
25708;DHT22;13567;61.652;17.100;2022-07-06T08:52:06;22.70;90.60
25708;DHT22;13567;61.652;17.100;2022-07-06T08:54:54;23.30;89.20
25708;DHT22;13567;61.652;17.100;2022-07-06T08:57:42;24.10;90.00
25708;DHT22;13567;61.652;17.100;2022-07-06T09:00:32;24.40;90.10
25708;DHT22;13567;61.652;17.100;2022-07-06T09:03:20;24.60;77.90
25708;DHT22;13567;61.652;17.100;2022-07-06T09:06:08;25.00;82.90
25708;DHT22;13567;61.652;17.100;2022-07-06T09:08:56;25.60;78.80
25708;DHT22;13567;61.652;17.100;2022-07-06T09:11:25;26.40;70.20
25708;DHT22;13567;61.652;17.100;2022-07-06T09:13:55;26.10;69.60
25708;DHT22;13567;61.652;17.100;2022-07-06T09:16:26;26.70;69.80
25708;DHT22;13567;61.652;17.100;2022-07-06T09:19:24;25.60;65.00
25708;DHT22;13567;61.652;17.100;2022-07-06T09:21:52;24.70;69.80
25708;DHT22;13567;61.652;17.100;2022-07-06T09:24:27;24.80;68.10
25708;DHT22;13567;61.652;17.100;2022-07-06T09:26:58;25.70;73.70
25708;DHT22;13567;61.652;17.100;2022-07-06T09:29:32;25.70;67.60
25708;DHT22;13567;61.652;17.100;2022-07-06T09:32:20;25.70;66.10
25708;DHT22;13567;61.652;17.100;2022-07-06T09:35:01;26.20;64.70
25708;DHT22;13567;61.652;17.100;2022-07-06T09:38:04;25.80;65.70
25708;DHT22;13567;61.652;17.100;2022-07-06T09:40:37;25.60;66.50
25708;DHT22;13567;61.652;17.100;2022-07-06T09:43:25;26.00;66.30
25708;DHT22;13567;61.652;17.100;2022-07-06T09:45:54;26.10;62.40
25708;DHT22;13567;61.652;17.100;2022-07-06T09:48:27;25.60;66.80
25708;DHT22;13567;61.652;17.100;2022-07-06T09:51:06;25.10;66.30
25708;DHT22;13567;61.652;17.100;2022-07-06T09:53:57;25.80;63.60
25708;DHT22;13567;61.652;17.100;2022-07-06T09:56:38;25.50;66.70
25708;DHT22;13567;61.652;17.100;2022-07-06T09:59:11;24.10;67.50
25708;DHT22;13567;61.652;17.100;2022-07-06T10:01:39;23.60;69.60
25708;DHT22;13567;61.652;17.100;2022-07-06T10:04:08;23.30;73.00
25708;DHT22;13567;61.652;17.100;2022-07-06T10:06:35;22.60;73.10
25708;DHT22;13567;61.652;17.100;2022-07-06T10:09:05;22.10;73.50
25708;DHT22;13567;61.652;17.100;2022-07-06T10:11:59;21.60;72.00
25708;DHT22;13567;61.652;17.100;2022-07-06T10:14:29;21.50;73.50
25708;DHT22;13567;61.652;17.100;2022-07-06T10:16:58;22.50;77.70
25708;DHT22;13567;61.652;17.100;2022-07-06T10:19:27;25.00;70.00
25708;DHT22;13567;61.652;17.100;2022-07-06T10:21:56;26.10;64.80
25708;DHT22;13567;61.652;17.100;2022-07-06T10:24:25;25.30;61.90
25708;DHT22;13567;61.652;17.100;2022-07-06T10:26:55;25.30;64.80
25708;DHT22;13567;61.652;17.100;2022-07-06T10:29:23;26.20;63.50
25708;DHT22;13567;61.652;17.100;2022-07-06T10:31:51;26.70;59.70
25708;DHT22;13567;61.652;17.100;2022-07-06T10:34:39;26.80;57.60
25708;DHT22;13567;61.652;17.100;2022-07-06T10:37:27;27.30;57.70
25708;DHT22;13567;61.652;17.100;2022-07-06T10:40:14;26.90;58.40
25708;DHT22;13567;61.652;17.100;2022-07-06T10:43:20;27.60;56.70
25708;DHT22;13567;61.652;17.100;2022-07-06T10:46:11;28.30;59.00
25708;DHT22;13567;61.652;17.100;2022-07-06T10:48:44;29.40;55.50
25708;DHT22;13567;61.652;17.100;2022-07-06T10:51:13;30.20;51.90
25708;DHT22;13567;61.652;17.100;2022-07-06T10:54:02;30.30;50.80
25708;DHT22;13567;61.652;17.100;2022-07-06T10:56:51;28.20;54.10
25708;DHT22;13567;61.652;17.100;2022-07-06T10:59:38;26.00;59.40
25708;DHT22;13567;61.652;17.100;2022-07-06T11:02:25;24.80;64.30
25708;DHT22;13567;61.652;17.100;2022-07-06T11:05:41;23.70;65.30
25708;DHT22;13567;61.652;17.100;2022-07-06T11:08:44;22.60;67.60
25708;DHT22;13567;61.652;17.100;2022-07-06T11:14:21;21.60;70.00
25708;DHT22;13567;61.652;17.100;2022-07-06T11:17:10;23.70;67.50
25708;DHT22;13567;61.652;17.100;2022-07-06T11:20:11;25.90;59.60
25708;DHT22;13567;61.652;17.100;2022-07-06T11:22:59;26.00;59.00
25708;DHT22;13567;61.652;17.100;2022-07-06T11:25:46;24.30;66.20
25708;DHT22;13567;61.652;17.100;2022-07-06T11:28:33;22.80;69.50
25708;DHT22;13567;61.652;17.100;2022-07-06T11:31:20;21.50;76.50
25708;DHT22;13567;61.652;17.100;2022-07-06T11:34:08;22.80;78.20
25708;DHT22;13567;61.652;17.100;2022-07-06T11:37:01;23.90;69.60
25708;DHT22;13567;61.652;17.100;2022-07-06T11:39:48;24.30;72.00
25708;DHT22;13567;61.652;17.100;2022-07-06T11:42:35;24.60;70.40
25708;DHT22;13567;61.652;17.100;2022-07-06T11:45:26;23.40;73.20
25708;DHT22;13567;61.652;17.100;2022-07-06T11:48:13;23.40;74.50
25708;DHT22;13567;61.652;17.100;2022-07-06T11:51:03;22.40;75.70
25708;DHT22;13567;61.652;17.100;2022-07-06T11:53:52;19.70;83.30
25708;DHT22;13567;61.652;17.100;2022-07-06T11:56:56;18.70;87.80
25708;DHT22;13567;61.652;17.100;2022-07-06T11:59:45;18.30;90.40
25708;DHT22;13567;61.652;17.100;2022-07-06T12:02:34;18.40;90.50
25708;DHT22;13567;61.652;17.100;2022-07-06T12:05:30;18.50;90.50
25708;DHT22;13567;61.652;17.100;2022-07-06T12:08:17;18.70;89.90
25708;DHT22;13567;61.652;17.100;2022-07-06T12:11:04;19.40;88.70
25708;DHT22;13567;61.652;17.100;2022-07-06T12:13:53;21.30;82.00
25708;DHT22;13567;61.652;17.100;2022-07-06T12:16:41;22.10;79.50
25708;DHT22;13567;61.652;17.100;2022-07-06T12:19:28;21.60;79.00
25708;DHT22;13567;61.652;17.100;2022-07-06T12:22:24;20.30;80.90
25708;DHT22;13567;61.652;17.100;2022-07-06T12:24:52;19.20;86.60
25708;DHT22;13567;61.652;17.100;2022-07-06T12:27:19;18.60;90.00
25708;DHT22;13567;61.652;17.100;2022-07-06T12:29:48;18.10;89.50
25708;DHT22;13567;61.652;17.100;2022-07-06T12:32:24;17.70;91.20
25708;DHT22;13567;61.652;17.100;2022-07-06T12:35:06;17.20;92.70
25708;DHT22;13567;61.652;17.100;2022-07-06T12:37:35;17.00;93.40
25708;DHT22;13567;61.652;17.100;2022-07-06T12:40:11;17.00;93.10
25708;DHT22;13567;61.652;17.100;2022-07-06T12:42:46;16.90;93.40
25708;DHT22;13567;61.652;17.100;2022-07-06T12:45:14;17.20;94.00
25708;DHT22;13567;61.652;17.100;2022-07-06T12:47:41;17.30;93.90
25708;DHT22;13567;61.652;17.100;2022-07-06T12:50:11;18.00;93.30
25708;DHT22;13567;61.652;17.100;2022-07-06T12:52:38;18.60;91.60
25708;DHT22;13567;61.652;17.100;2022-07-06T12:55:06;18.80;91.20
25708;DHT22;13567;61.652;17.100;2022-07-06T12:57:48;18.70;90.60
25708;DHT22;13567;61.652;17.100;2022-07-06T13:00:17;18.30;91.60
25708;DHT22;13567;61.652;17.100;2022-07-06T13:02:46;18.00;92.20
25708;DHT22;13567;61.652;17.100;2022-07-06T13:05:33;17.80;92.60
25708;DHT22;13567;61.652;17.100;2022-07-06T13:08:02;18.00;93.30
25708;DHT22;13567;61.652;17.100;2022-07-06T13:10:29;18.00;94.10
25708;DHT22;13567;61.652;17.100;2022-07-06T13:12:57;18.00;93.50
25708;DHT22;13567;61.652;17.100;2022-07-06T13:15:25;17.90;93.20
25708;DHT22;13567;61.652;17.100;2022-07-06T13:17:52;17.90;94.00
25708;DHT22;13567;61.652;17.100;2022-07-06T13:20:19;17.50;95.40
25708;DHT22;13567;61.652;17.100;2022-07-06T13:22:46;17.70;96.00
25708;DHT22;13567;61.652;17.100;2022-07-06T13:25:13;17.60;97.00
25708;DHT22;13567;61.652;17.100;2022-07-06T13:27:40;17.10;97.80
25708;DHT22;13567;61.652;17.100;2022-07-06T13:30:07;17.00;99.40
25708;DHT22;13567;61.652;17.100;2022-07-06T13:32:34;17.20;99.90
25708;DHT22;13567;61.652;17.100;2022-07-06T13:35:02;17.60;99.90
25708;DHT22;13567;61.652;17.100;2022-07-06T13:37:29;17.50;99.90
25708;DHT22;13567;61.652;17.100;2022-07-06T13:39:56;17.50;99.90
25708;DHT22;13567;61.652;17.100;2022-07-06T13:42:23;17.40;99.90
25708;DHT22;13567;61.652;17.100;2022-07-06T13:44:50;17.10;99.90
25708;DHT22;13567;61.652;17.100;2022-07-06T13:47:16;17.00;99.90
25708;DHT22;13567;61.652;17.100;2022-07-06T13:49:43;16.80;99.90
25708;DHT22;13567;61.652;17.100;2022-07-06T13:52:14;16.70;99.90
25708;DHT22;13567;61.652;17.100;2022-07-06T13:54:41;16.70;99.90
25708;DHT22;13567;61.652;17.100;2022-07-06T13:57:08;16.90;99.90
25708;DHT22;13567;61.652;17.100;2022-07-06T13:59:35;17.00;99.90
25708;DHT22;13567;61.652;17.100;2022-07-06T14:02:02;17.10;99.90
25708;DHT22;13567;61.652;17.100;2022-07-06T14:04:29;16.90;99.90
25708;DHT22;13567;61.652;17.100;2022-07-06T14:06:56;16.90;99.90
25708;DHT22;13567;61.652;17.100;2022-07-06T14:09:23;16.70;99.90
25708;DHT22;13567;61.652;17.100;2022-07-06T14:11:50;16.50;99.90
25708;DHT22;13567;61.652;17.100;2022-07-06T14:14:17;16.80;99.90
25708;DHT22;13567;61.652;17.100;2022-07-06T14:16:44;17.10;99.90
25708;DHT22;13567;61.652;17.100;2022-07-06T14:19:12;17.50;99.90
25708;DHT22;13567;61.652;17.100;2022-07-06T14:21:46;18.10;99.90
25708;DHT22;13567;61.652;17.100;2022-07-06T14:24:13;18.10;99.90
25708;DHT22;13567;61.652;17.100;2022-07-06T14:26:40;17.90;99.90
25708;DHT22;13567;61.652;17.100;2022-07-06T14:29:27;17.50;99.90
25708;DHT22;13567;61.652;17.100;2022-07-06T14:31:54;17.10;99.90
25708;DHT22;13567;61.652;17.100;2022-07-06T14:34:41;17.10;99.90
25708;DHT22;13567;61.652;17.100;2022-07-06T14:37:29;17.20;99.90
25708;DHT22;13567;61.652;17.100;2022-07-06T14:39:56;17.60;99.90
25708;DHT22;13567;61.652;17.100;2022-07-06T14:42:43;18.20;99.90
25708;DHT22;13567;61.652;17.100;2022-07-06T14:45:10;18.80;99.90
25708;DHT22;13567;61.652;17.100;2022-07-06T14:47:37;18.30;99.90
25708;DHT22;13567;61.652;17.100;2022-07-06T14:50:04;17.50;99.90
25708;DHT22;13567;61.652;17.100;2022-07-06T14:52:31;17.40;99.90
25708;DHT22;13567;61.652;17.100;2022-07-06T14:54:58;17.40;99.90
25708;DHT22;13567;61.652;17.100;2022-07-06T14:57:26;17.30;99.90
25708;DHT22;13567;61.652;17.100;2022-07-06T14:59:53;17.10;99.90
25708;DHT22;13567;61.652;17.100;2022-07-06T15:02:20;17.00;99.90
25708;DHT22;13567;61.652;17.100;2022-07-06T15:04:47;17.10;99.90
25708;DHT22;13567;61.652;17.100;2022-07-06T15:07:14;17.30;99.90
25708;DHT22;13567;61.652;17.100;2022-07-06T15:09:42;17.10;99.90
25708;DHT22;13567;61.652;17.100;2022-07-06T15:12:09;17.40;99.90
25708;DHT22;13567;61.652;17.100;2022-07-06T15:14:36;17.80;99.90
25708;DHT22;13567;61.652;17.100;2022-07-06T15:17:03;18.00;99.90
25708;DHT22;13567;61.652;17.100;2022-07-06T15:19:31;17.40;99.90
25708;DHT22;13567;61.652;17.100;2022-07-06T15:21:58;17.20;99.90
25708;DHT22;13567;61.652;17.100;2022-07-06T15:24:25;16.90;99.90
25708;DHT22;13567;61.652;17.100;2022-07-06T15:26:52;16.90;99.90
25708;DHT22;13567;61.652;17.100;2022-07-06T15:29:19;17.20;99.90
25708;DHT22;13567;61.652;17.100;2022-07-06T15:31:46;17.40;99.90
25708;DHT22;13567;61.652;17.100;2022-07-06T15:34:14;17.20;99.90
25708;DHT22;13567;61.652;17.100;2022-07-06T15:36:41;17.60;99.90
25708;DHT22;13567;61.652;17.100;2022-07-06T15:39:08;17.80;99.90
25708;DHT22;13567;61.652;17.100;2022-07-06T15:41:36;18.10;99.90
25708;DHT22;13567;61.652;17.100;2022-07-06T15:44:03;17.70;99.90